sensor_id;sensor_type;location;lat;lon;timestamp;temperature;humidity
26342;DHT22;14054;50.108;8.640;2023-05-07T00:00:33;16.40;99.90
26342;DHT22;14054;50.108;8.640;2023-05-07T00:02:59;16.40;99.90
26342;DHT22;14054;50.108;8.640;2023-05-07T00:05:25;16.30;99.90
26342;DHT22;14054;50.108;8.640;2023-05-07T00:07:51;16.30;99.90
26342;DHT22;14054;50.108;8.640;2023-05-07T00:10:18;16.30;99.90
26342;DHT22;14054;50.108;8.640;2023-05-07T00:12:43;16.20;99.90
26342;DHT22;14054;50.108;8.640;2023-05-07T00:15:09;16.20;99.90
26342;DHT22;14054;50.108;8.640;2023-05-07T00:17:35;16.10;99.90
26342;DHT22;14054;50.108;8.640;2023-05-07T00:20:00;16.10;99.90
26342;DHT22;14054;50.108;8.640;2023-05-07T00:22:26;16.10;99.90
26342;DHT22;14054;50.108;8.640;2023-05-07T00:24:51;16.10;99.90
26342;DHT22;14054;50.108;8.640;2023-05-07T00:27:17;16.10;99.90
26342;DHT22;14054;50.108;8.640;2023-05-07T00:29:42;16.10;99.90
26342;DHT22;14054;50.108;8.640;2023-05-07T00:32:08;16.10;99.90
26342;DHT22;14054;50.108;8.640;2023-05-07T00:34:34;16.10;99.90
26342;DHT22;14054;50.108;8.640;2023-05-07T00:37:00;16.10;99.90
26342;DHT22;14054;50.108;8.640;2023-05-07T00:39:26;16.10;99.90
26342;DHT22;14054;50.108;8.640;2023-05-07T00:41:51;16.10;99.90
26342;DHT22;14054;50.108;8.640;2023-05-07T00:44:17;16.10;99.90
26342;DHT22;14054;50.108;8.640;2023-05-07T00:46:43;16.00;99.90
26342;DHT22;14054;50.108;8.640;2023-05-07T00:49:10;16.00;99.90
26342;DHT22;14054;50.108;8.640;2023-05-07T00:51:35;16.10;99.90
26342;DHT22;14054;50.108;8.640;2023-05-07T00:54:02;16.10;99.90
26342;DHT22;14054;50.108;8.640;2023-05-07T00:56:28;16.10;99.90
26342;DHT22;14054;50.108;8.640;2023-05-07T00:58:54;16.10;99.90
26342;DHT22;14054;50.108;8.640;2023-05-07T01:01:20;16.10;99.90
26342;DHT22;14054;50.108;8.640;2023-05-07T01:03:45;16.10;99.90
26342;DHT22;14054;50.108;8.640;2023-05-07T01:06:13;16.10;99.90
26342;DHT22;14054;50.108;8.640;2023-05-07T01:08:42;16.10;99.90
26342;DHT22;14054;50.108;8.640;2023-05-07T01:11:08;16.10;99.90
26342;DHT22;14054;50.108;8.640;2023-05-07T01:13:35;16.00;99.90
26342;DHT22;14054;50.108;8.640;2023-05-07T01:16:01;16.00;99.90
26342;DHT22;14054;50.108;8.640;2023-05-07T01:18:26;16.00;99.90
26342;DHT22;14054;50.108;8.640;2023-05-07T01:20:52;16.00;99.90
26342;DHT22;14054;50.108;8.640;2023-05-07T01:23:18;16.00;99.90
26342;DHT22;14054;50.108;8.640;2023-05-07T01:25:50;16.00;99.90
26342;DHT22;14054;50.108;8.640;2023-05-07T01:28:15;16.00;99.90
26342;DHT22;14054;50.108;8.640;2023-05-07T01:30:42;16.00;99.90
26342;DHT22;14054;50.108;8.640;2023-05-07T01:33:13;16.00;99.90
26342;DHT22;14054;50.108;8.640;2023-05-07T01:35:45;15.90;99.90
26342;DHT22;14054;50.108;8.640;2023-05-07T01:38:11;15.90;99.90
26342;DHT22;14054;50.108;8.640;2023-05-07T01:40:37;16.00;99.90
26342;DHT22;14054;50.108;8.640;2023-05-07T01:43:03;15.90;99.90
26342;DHT22;14054;50.108;8.640;2023-05-07T01:45:30;15.90;99.90
26342;DHT22;14054;50.108;8.640;2023-05-07T01:47:58;15.90;99.90
26342;DHT22;14054;50.108;8.640;2023-05-07T01:50:25;16.00;99.90
26342;DHT22;14054;50.108;8.640;2023-05-07T01:52:51;15.90;99.90
26342;DHT22;14054;50.108;8.640;2023-05-07T01:55:17;15.80;99.90
26342;DHT22;14054;50.108;8.640;2023-05-07T01:57:43;15.80;99.90
26342;DHT22;14054;50.108;8.640;2023-05-07T02:00:08;15.80;99.90
26342;DHT22;14054;50.108;8.640;2023-05-07T02:02:35;15.80;99.90
26342;DHT22;14054;50.108;8.640;2023-05-07T02:05:00;15.80;99.90
26342;DHT22;14054;50.108;8.640;2023-05-07T02:07:27;15.80;99.90
26342;DHT22;14054;50.108;8.640;2023-05-07T02:09:52;15.90;99.90
26342;DHT22;14054;50.108;8.640;2023-05-07T02:12:19;15.80;99.90
26342;DHT22;14054;50.108;8.640;2023-05-07T02:14:44;15.80;99.90
26342;DHT22;14054;50.108;8.640;2023-05-07T02:17:10;15.80;99.90
26342;DHT22;14054;50.108;8.640;2023-05-07T02:19:35;15.80;99.90
26342;DHT22;14054;50.108;8.640;2023-05-07T02:22:01;15.80;99.90
26342;DHT22;14054;50.108;8.640;2023-05-07T02:24:26;15.80;99.90
26342;DHT22;14054;50.108;8.640;2023-05-07T02:26:51;15.80;99.90
26342;DHT22;14054;50.108;8.640;2023-05-07T02:29:17;15.80;99.90
26342;DHT22;14054;50.108;8.640;2023-05-07T02:31:42;15.70;99.90
26342;DHT22;14054;50.108;8.640;2023-05-07T02:34:08;15.70;99.90
26342;DHT22;14054;50.108;8.640;2023-05-07T02:36:33;15.70;99.90
26342;DHT22;14054;50.108;8.640;2023-05-07T02:38:59;15.80;99.90
26342;DHT22;14054;50.108;8.640;2023-05-07T02:41:24;15.80;99.90
26342;DHT22;14054;50.108;8.640;2023-05-07T02:43:50;15.80;99.90
26342;DHT22;14054;50.108;8.640;2023-05-07T02:46:15;15.80;99.90
26342;DHT22;14054;50.108;8.640;2023-05-07T02:48:41;15.80;99.90
26342;DHT22;14054;50.108;8.640;2023-05-07T02:51:06;15.70;99.90
26342;DHT22;14054;50.108;8.640;2023-05-07T02:53:32;15.70;99.90
26342;DHT22;14054;50.108;8.640;2023-05-07T02:55:59;15.70;99.90
26342;DHT22;14054;50.108;8.640;2023-05-07T02:58:25;15.70;99.90
26342;DHT22;14054;50.108;8.640;2023-05-07T03:00:51;15.70;99.90
26342;DHT22;14054;50.108;8.640;2023-05-07T03:03:17;15.60;99.90
26342;DHT22;14054;50.108;8.640;2023-05-07T03:05:43;15.60;99.90
26342;DHT22;14054;50.108;8.640;2023-05-07T03:08:09;15.60;99.90
26342;DHT22;14054;50.108;8.640;2023-05-07T03:10:35;15.60;99.90
26342;DHT22;14054;50.108;8.640;2023-05-07T03:13:01;15.50;99.90
26342;DHT22;14054;50.108;8.640;2023-05-07T03:15:27;15.50;99.90
26342;DHT22;14054;50.108;8.640;2023-05-07T03:17:53;15.50;99.90
26342;DHT22;14054;50.108;8.640;2023-05-07T03:20:18;15.40;99.90
26342;DHT22;14054;50.108;8.640;2023-05-07T03:22:44;15.40;99.90
26342;DHT22;14054;50.108;8.640;2023-05-07T03:25:10;15.40;99.90
26342;DHT22;14054;50.108;8.640;2023-05-07T03:27:36;15.40;99.90
26342;DHT22;14054;50.108;8.640;2023-05-07T03:30:01;15.40;99.90
26342;DHT22;14054;50.108;8.640;2023-05-07T03:32:27;15.40;99.90
26342;DHT22;14054;50.108;8.640;2023-05-07T03:34:52;15.40;99.90
26342;DHT22;14054;50.108;8.640;2023-05-07T03:37:18;15.50;99.90
26342;DHT22;14054;50.108;8.640;2023-05-07T03:39:43;15.50;99.90
26342;DHT22;14054;50.108;8.640;2023-05-07T03:42:09;15.50;99.90
26342;DHT22;14054;50.108;8.640;2023-05-07T03:44:35;15.50;99.90
26342;DHT22;14054;50.108;8.640;2023-05-07T03:47:01;15.50;99.90
26342;DHT22;14054;50.108;8.640;2023-05-07T03:49:27;15.50;99.90
26342;DHT22;14054;50.108;8.640;2023-05-07T03:51:52;15.50;99.90
26342;DHT22;14054;50.108;8.640;2023-05-07T03:54:18;15.50;99.90
26342;DHT22;14054;50.108;8.640;2023-05-07T03:56:44;15.50;99.90
26342;DHT22;14054;50.108;8.640;2023-05-07T03:59:09;15.50;99.90
26342;DHT22;14054;50.108;8.640;2023-05-07T04:01:34;15.40;99.90
26342;DHT22;14054;50.108;8.640;2023-05-07T04:04:00;15.40;99.90
26342;DHT22;14054;50.108;8.640;2023-05-07T04:06:25;15.30;99.90
26342;DHT22;14054;50.108;8.640;2023-05-07T04:08:51;15.40;99.90
26342;DHT22;14054;50.108;8.640;2023-05-07T04:11:16;15.30;99.90
26342;DHT22;14054;50.108;8.640;2023-05-07T04:13:42;15.20;99.90
26342;DHT22;14054;50.108;8.640;2023-05-07T04:16:08;15.20;99.90
26342;DHT22;14054;50.108;8.640;2023-05-07T04:18:33;15.20;99.90
26342;DHT22;14054;50.108;8.640;2023-05-07T04:20:59;15.30;99.90
26342;DHT22;14054;50.108;8.640;2023-05-07T04:23:24;15.30;99.90
26342;DHT22;14054;50.108;8.640;2023-05-07T04:25:50;15.30;99.90
26342;DHT22;14054;50.108;8.640;2023-05-07T04:28:15;15.30;99.90
26342;DHT22;14054;50.108;8.640;2023-05-07T04:30:41;15.40;99.90
26342;DHT22;14054;50.108;8.640;2023-05-07T04:33:07;15.30;99.90
26342;DHT22;14054;50.108;8.640;2023-05-07T04:35:32;15.30;99.90
26342;DHT22;14054;50.108;8.640;2023-05-07T04:37:58;15.30;99.90
26342;DHT22;14054;50.108;8.640;2023-05-07T04:40:23;15.30;99.90
26342;DHT22;14054;50.108;8.640;2023-05-07T04:42:49;15.30;99.90
26342;DHT22;14054;50.108;8.640;2023-05-07T04:45:14;15.30;99.90
26342;DHT22;14054;50.108;8.640;2023-05-07T04:47:40;15.40;99.90
26342;DHT22;14054;50.108;8.640;2023-05-07T04:50:09;15.40;99.90
26342;DHT22;14054;50.108;8.640;2023-05-07T04:52:36;15.40;99.90
26342;DHT22;14054;50.108;8.640;2023-05-07T04:55:01;15.50;99.90
26342;DHT22;14054;50.108;8.640;2023-05-07T04:57:27;15.50;99.90
26342;DHT22;14054;50.108;8.640;2023-05-07T04:59:53;15.50;99.90
26342;DHT22;14054;50.108;8.640;2023-05-07T05:02:19;15.50;99.90
26342;DHT22;14054;50.108;8.640;2023-05-07T05:04:44;15.60;99.90
26342;DHT22;14054;50.108;8.640;2023-05-07T05:07:10;15.60;99.90
26342;DHT22;14054;50.108;8.640;2023-05-07T05:09:36;15.60;99.90
26342;DHT22;14054;50.108;8.640;2023-05-07T05:12:01;15.60;99.90
26342;DHT22;14054;50.108;8.640;2023-05-07T05:14:27;15.70;99.90
26342;DHT22;14054;50.108;8.640;2023-05-07T05:16:52;15.70;99.90
26342;DHT22;14054;50.108;8.640;2023-05-07T05:19:17;15.60;99.90
26342;DHT22;14054;50.108;8.640;2023-05-07T05:21:43;15.60;99.90
26342;DHT22;14054;50.108;8.640;2023-05-07T05:24:08;15.60;99.90
26342;DHT22;14054;50.108;8.640;2023-05-07T05:26:34;15.50;99.90
26342;DHT22;14054;50.108;8.640;2023-05-07T05:29:00;15.60;99.90
26342;DHT22;14054;50.108;8.640;2023-05-07T05:31:25;15.60;99.90
26342;DHT22;14054;50.108;8.640;2023-05-07T05:33:51;15.60;99.90
26342;DHT22;14054;50.108;8.640;2023-05-07T05:36:16;15.80;99.90
26342;DHT22;14054;50.108;8.640;2023-05-07T05:38:42;15.90;99.90
26342;DHT22;14054;50.108;8.640;2023-05-07T05:41:07;16.00;99.90
26342;DHT22;14054;50.108;8.640;2023-05-07T05:43:33;16.10;99.90
26342;DHT22;14054;50.108;8.640;2023-05-07T05:45:59;16.10;99.90
26342;DHT22;14054;50.108;8.640;2023-05-07T05:48:25;16.20;99.90
26342;DHT22;14054;50.108;8.640;2023-05-07T05:50:51;16.10;99.90
26342;DHT22;14054;50.108;8.640;2023-05-07T05:53:16;16.10;99.90
26342;DHT22;14054;50.108;8.640;2023-05-07T05:55:42;16.20;99.90
26342;DHT22;14054;50.108;8.640;2023-05-07T05:58:09;16.40;99.90
26342;DHT22;14054;50.108;8.640;2023-05-07T06:00:34;16.40;99.90
26342;DHT22;14054;50.108;8.640;2023-05-07T06:03:00;16.50;99.90
26342;DHT22;14054;50.108;8.640;2023-05-07T06:05:25;16.40;99.90
26342;DHT22;14054;50.108;8.640;2023-05-07T06:07:51;16.50;99.90
26342;DHT22;14054;50.108;8.640;2023-05-07T06:10:16;16.70;99.90
26342;DHT22;14054;50.108;8.640;2023-05-07T06:12:42;16.70;99.90
26342;DHT22;14054;50.108;8.640;2023-05-07T06:15:08;16.70;99.90
26342;DHT22;14054;50.108;8.640;2023-05-07T06:17:34;16.70;99.90
26342;DHT22;14054;50.108;8.640;2023-05-07T06:19:59;16.60;99.90
26342;DHT22;14054;50.108;8.640;2023-05-07T06:22:25;16.70;99.90
26342;DHT22;14054;50.108;8.640;2023-05-07T06:24:50;16.60;99.90
26342;DHT22;14054;50.108;8.640;2023-05-07T06:27:16;16.80;99.90
26342;DHT22;14054;50.108;8.640;2023-05-07T06:29:41;16.80;99.90
26342;DHT22;14054;50.108;8.640;2023-05-07T06:32:11;17.00;99.90
26342;DHT22;14054;50.108;8.640;2023-05-07T06:34:37;17.20;99.90
26342;DHT22;14054;50.108;8.640;2023-05-07T06:37:03;17.40;99.90
26342;DHT22;14054;50.108;8.640;2023-05-07T06:39:29;17.50;99.90
26342;DHT22;14054;50.108;8.640;2023-05-07T06:41:54;17.40;99.90
26342;DHT22;14054;50.108;8.640;2023-05-07T06:44:20;17.30;99.90
26342;DHT22;14054;50.108;8.640;2023-05-07T06:46:45;17.30;99.90
26342;DHT22;14054;50.108;8.640;2023-05-07T06:49:12;17.30;99.90
26342;DHT22;14054;50.108;8.640;2023-05-07T06:51:38;17.40;99.90
26342;DHT22;14054;50.108;8.640;2023-05-07T06:54:04;17.30;99.90
26342;DHT22;14054;50.108;8.640;2023-05-07T06:56:30;17.50;99.90
26342;DHT22;14054;50.108;8.640;2023-05-07T06:58:55;17.60;99.90
26342;DHT22;14054;50.108;8.640;2023-05-07T07:01:21;17.80;99.90
26342;DHT22;14054;50.108;8.640;2023-05-07T07:03:46;18.10;99.90
26342;DHT22;14054;50.108;8.640;2023-05-07T07:06:12;18.30;99.90
26342;DHT22;14054;50.108;8.640;2023-05-07T07:08:38;18.50;99.90
26342;DHT22;14054;50.108;8.640;2023-05-07T07:11:04;18.50;99.90
26342;DHT22;14054;50.108;8.640;2023-05-07T07:13:30;18.60;99.90
26342;DHT22;14054;50.108;8.640;2023-05-07T07:15:55;18.70;99.90
26342;DHT22;14054;50.108;8.640;2023-05-07T07:18:21;18.80;99.90
26342;DHT22;14054;50.108;8.640;2023-05-07T07:20:46;18.70;99.90
26342;DHT22;14054;50.108;8.640;2023-05-07T07:23:12;18.60;99.90
26342;DHT22;14054;50.108;8.640;2023-05-07T07:25:37;18.70;99.90
26342;DHT22;14054;50.108;8.640;2023-05-07T07:28:03;19.00;99.90
26342;DHT22;14054;50.108;8.640;2023-05-07T07:30:28;18.80;99.90
26342;DHT22;14054;50.108;8.640;2023-05-07T07:32:54;18.80;99.90
26342;DHT22;14054;50.108;8.640;2023-05-07T07:35:20;19.10;99.90
26342;DHT22;14054;50.108;8.640;2023-05-07T07:37:47;19.20;99.90
26342;DHT22;14054;50.108;8.640;2023-05-07T07:40:15;19.40;99.90
26342;DHT22;14054;50.108;8.640;2023-05-07T07:42:40;19.60;99.90
26342;DHT22;14054;50.108;8.640;2023-05-07T07:45:06;20.00;99.90
26342;DHT22;14054;50.108;8.640;2023-05-07T07:47:32;20.00;99.90
26342;DHT22;14054;50.108;8.640;2023-05-07T07:49:57;19.80;99.90
26342;DHT22;14054;50.108;8.640;2023-05-07T07:52:23;19.60;99.90
26342;DHT22;14054;50.108;8.640;2023-05-07T07:54:48;19.60;99.90
26342;DHT22;14054;50.108;8.640;2023-05-07T07:57:14;19.60;99.90
26342;DHT22;14054;50.108;8.640;2023-05-07T07:59:39;19.60;99.90
26342;DHT22;14054;50.108;8.640;2023-05-07T08:02:05;19.40;99.90
26342;DHT22;14054;50.108;8.640;2023-05-07T08:04:31;19.50;99.90
26342;DHT22;14054;50.108;8.640;2023-05-07T08:06:58;19.50;99.90
26342;DHT22;14054;50.108;8.640;2023-05-07T08:09:23;19.70;99.90
26342;DHT22;14054;50.108;8.640;2023-05-07T08:11:49;19.50;99.90
26342;DHT22;14054;50.108;8.640;2023-05-07T08:14:15;19.80;99.90
26342;DHT22;14054;50.108;8.640;2023-05-07T08:16:41;19.80;99.90
26342;DHT22;14054;50.108;8.640;2023-05-07T08:19:06;19.90;99.90
26342;DHT22;14054;50.108;8.640;2023-05-07T08:21:32;19.80;99.90
26342;DHT22;14054;50.108;8.640;2023-05-07T08:23:57;20.00;99.90
26342;DHT22;14054;50.108;8.640;2023-05-07T08:26:23;20.10;99.90
26342;DHT22;14054;50.108;8.640;2023-05-07T08:28:48;20.20;99.90
26342;DHT22;14054;50.108;8.640;2023-05-07T08:31:14;20.20;99.90
26342;DHT22;14054;50.108;8.640;2023-05-07T08:33:40;20.30;99.90
26342;DHT22;14054;50.108;8.640;2023-05-07T08:36:05;20.30;99.90
26342;DHT22;14054;50.108;8.640;2023-05-07T08:38:31;20.10;99.90
26342;DHT22;14054;50.108;8.640;2023-05-07T08:40:56;20.00;99.90
26342;DHT22;14054;50.108;8.640;2023-05-07T08:43:23;20.30;99.90
26342;DHT22;14054;50.108;8.640;2023-05-07T08:45:53;20.30;99.90
26342;DHT22;14054;50.108;8.640;2023-05-07T08:48:21;20.30;99.90
26342;DHT22;14054;50.108;8.640;2023-05-07T08:50:47;20.60;99.90
26342;DHT22;14054;50.108;8.640;2023-05-07T08:53:13;20.50;99.90
26342;DHT22;14054;50.108;8.640;2023-05-07T08:55:40;20.60;99.90
26342;DHT22;14054;50.108;8.640;2023-05-07T08:58:05;20.70;99.90
26342;DHT22;14054;50.108;8.640;2023-05-07T09:00:31;20.80;99.90
26342;DHT22;14054;50.108;8.640;2023-05-07T09:02:57;20.70;99.90
26342;DHT22;14054;50.108;8.640;2023-05-07T09:05:22;21.10;99.90
26342;DHT22;14054;50.108;8.640;2023-05-07T09:07:48;21.00;99.90
26342;DHT22;14054;50.108;8.640;2023-05-07T09:10:14;21.00;99.90
26342;DHT22;14054;50.108;8.640;2023-05-07T09:12:39;21.60;99.90
26342;DHT22;14054;50.108;8.640;2023-05-07T09:15:06;21.50;99.90
26342;DHT22;14054;50.108;8.640;2023-05-07T09:17:32;21.90;99.90
26342;DHT22;14054;50.108;8.640;2023-05-07T09:20:05;21.90;99.90
26342;DHT22;14054;50.108;8.640;2023-05-07T09:22:36;21.80;99.90
26342;DHT22;14054;50.108;8.640;2023-05-07T09:25:02;21.80;99.90
26342;DHT22;14054;50.108;8.640;2023-05-07T09:27:28;21.80;99.90
26342;DHT22;14054;50.108;8.640;2023-05-07T09:29:53;22.00;99.90
26342;DHT22;14054;50.108;8.640;2023-05-07T09:32:19;22.20;99.90
26342;DHT22;14054;50.108;8.640;2023-05-07T09:34:44;22.40;99.90
26342;DHT22;14054;50.108;8.640;2023-05-07T09:37:12;22.10;99.90
26342;DHT22;14054;50.108;8.640;2023-05-07T09:39:46;22.00;99.90
26342;DHT22;14054;50.108;8.640;2023-05-07T09:42:12;22.40;99.90
26342;DHT22;14054;50.108;8.640;2023-05-07T09:44:40;22.90;99.90
26342;DHT22;14054;50.108;8.640;2023-05-07T09:47:06;23.10;99.90
26342;DHT22;14054;50.108;8.640;2023-05-07T09:49:35;23.10;99.90
26342;DHT22;14054;50.108;8.640;2023-05-07T09:52:03;23.30;99.90
26342;DHT22;14054;50.108;8.640;2023-05-07T09:54:31;23.60;99.90
26342;DHT22;14054;50.108;8.640;2023-05-07T09:56:58;23.50;99.90
26342;DHT22;14054;50.108;8.640;2023-05-07T09:59:24;23.60;99.90
26342;DHT22;14054;50.108;8.640;2023-05-07T10:01:52;23.10;99.90
26342;DHT22;14054;50.108;8.640;2023-05-07T10:04:19;23.30;99.90
26342;DHT22;14054;50.108;8.640;2023-05-07T10:06:46;23.50;99.90
26342;DHT22;14054;50.108;8.640;2023-05-07T10:09:12;24.10;99.90
26342;DHT22;14054;50.108;8.640;2023-05-07T10:11:39;24.20;99.90
26342;DHT22;14054;50.108;8.640;2023-05-07T10:14:05;24.10;99.90
26342;DHT22;14054;50.108;8.640;2023-05-07T10:16:35;23.80;99.90
26342;DHT22;14054;50.108;8.640;2023-05-07T10:19:05;23.70;99.90
26342;DHT22;14054;50.108;8.640;2023-05-07T10:21:37;23.80;99.90
26342;DHT22;14054;50.108;8.640;2023-05-07T10:24:05;23.50;99.90
26342;DHT22;14054;50.108;8.640;2023-05-07T10:26:36;23.60;99.90
26342;DHT22;14054;50.108;8.640;2023-05-07T10:34:39;24.30;99.90
26342;DHT22;14054;50.108;8.640;2023-05-07T10:37:05;24.20;99.90
26342;DHT22;14054;50.108;8.640;2023-05-07T10:39:31;24.60;99.90
26342;DHT22;14054;50.108;8.640;2023-05-07T10:41:57;24.80;99.90
26342;DHT22;14054;50.108;8.640;2023-05-07T10:44:32;24.80;99.90
26342;DHT22;14054;50.108;8.640;2023-05-07T10:47:07;24.80;99.90
26342;DHT22;14054;50.108;8.640;2023-05-07T10:49:35;25.20;99.90
26342;DHT22;14054;50.108;8.640;2023-05-07T10:52:16;25.70;99.80
26342;DHT22;14054;50.108;8.640;2023-05-07T10:54:43;25.50;98.20
26342;DHT22;14054;50.108;8.640;2023-05-07T10:57:36;25.20;98.50
26342;DHT22;14054;50.108;8.640;2023-05-07T11:05:29;24.70;99.60
26342;DHT22;14054;50.108;8.640;2023-05-07T11:08:00;24.90;99.90
26342;DHT22;14054;50.108;8.640;2023-05-07T11:10:54;24.80;99.90
26342;DHT22;14054;50.108;8.640;2023-05-07T11:13:45;25.50;99.40
26342;DHT22;14054;50.108;8.640;2023-05-07T11:16:21;25.80;98.30
26342;DHT22;14054;50.108;8.640;2023-05-07T11:21:32;26.20;95.20
26342;DHT22;14054;50.108;8.640;2023-05-07T11:23:59;26.20;93.20
26342;DHT22;14054;50.108;8.640;2023-05-07T11:26:25;25.90;94.20
26342;DHT22;14054;50.108;8.640;2023-05-07T11:28:51;26.80;94.80
26342;DHT22;14054;50.108;8.640;2023-05-07T11:31:25;27.60;92.90
26342;DHT22;14054;50.108;8.640;2023-05-07T11:33:52;27.20;89.80
26342;DHT22;14054;50.108;8.640;2023-05-07T11:36:18;27.20;89.30
26342;DHT22;14054;50.108;8.640;2023-05-07T11:38:45;27.30;86.20
26342;DHT22;14054;50.108;8.640;2023-05-07T11:41:10;27.70;84.80
26342;DHT22;14054;50.108;8.640;2023-05-07T11:43:36;28.40;83.30
26342;DHT22;14054;50.108;8.640;2023-05-07T11:46:08;28.00;79.20
26342;DHT22;14054;50.108;8.640;2023-05-07T11:48:34;28.10;78.20
26342;DHT22;14054;50.108;8.640;2023-05-07T11:51:07;27.90;80.00
26342;DHT22;14054;50.108;8.640;2023-05-07T11:53:39;27.60;80.50
26342;DHT22;14054;50.108;8.640;2023-05-07T11:56:13;27.90;79.80
26342;DHT22;14054;50.108;8.640;2023-05-07T11:58:40;27.90;77.70
26342;DHT22;14054;50.108;8.640;2023-05-07T12:01:10;27.20;79.00
26342;DHT22;14054;50.108;8.640;2023-05-07T12:03:37;26.20;82.50
26342;DHT22;14054;50.108;8.640;2023-05-07T12:06:05;26.50;82.90
26342;DHT22;14054;50.108;8.640;2023-05-07T12:08:31;27.40;82.50
26342;DHT22;14054;50.108;8.640;2023-05-07T12:10:56;27.70;81.00
26342;DHT22;14054;50.108;8.640;2023-05-07T12:13:24;27.60;78.20
26342;DHT22;14054;50.108;8.640;2023-05-07T12:15:53;28.80;76.40
26342;DHT22;14054;50.108;8.640;2023-05-07T12:18:20;29.80;70.10
26342;DHT22;14054;50.108;8.640;2023-05-07T12:20:46;29.30;69.30
26342;DHT22;14054;50.108;8.640;2023-05-07T12:23:12;29.70;68.10
26342;DHT22;14054;50.108;8.640;2023-05-07T12:25:39;29.20;67.40
26342;DHT22;14054;50.108;8.640;2023-05-07T12:28:08;30.10;65.80
26342;DHT22;14054;50.108;8.640;2023-05-07T12:30:38;30.20;64.40
26342;DHT22;14054;50.108;8.640;2023-05-07T12:33:04;30.20;64.00
26342;DHT22;14054;50.108;8.640;2023-05-07T12:35:31;30.30;60.90
26342;DHT22;14054;50.108;8.640;2023-05-07T12:37:58;30.10;61.50
26342;DHT22;14054;50.108;8.640;2023-05-07T12:40:42;28.90;62.00
26342;DHT22;14054;50.108;8.640;2023-05-07T12:43:14;28.70;64.00
26342;DHT22;14054;50.108;8.640;2023-05-07T12:45:41;27.70;66.10
26342;DHT22;14054;50.108;8.640;2023-05-07T12:48:06;27.40;66.40
26342;DHT22;14054;50.108;8.640;2023-05-07T12:50:34;27.20;65.80
26342;DHT22;14054;50.108;8.640;2023-05-07T12:53:00;27.70;66.70
26342;DHT22;14054;50.108;8.640;2023-05-07T12:55:31;28.90;64.40
26342;DHT22;14054;50.108;8.640;2023-05-07T12:57:56;28.60;63.50
26342;DHT22;14054;50.108;8.640;2023-05-07T13:00:38;29.20;63.90
26342;DHT22;14054;50.108;8.640;2023-05-07T13:03:04;30.70;58.70
26342;DHT22;14054;50.108;8.640;2023-05-07T13:05:31;29.10;57.90
26342;DHT22;14054;50.108;8.640;2023-05-07T13:07:57;28.90;58.80
26342;DHT22;14054;50.108;8.640;2023-05-07T13:10:23;29.30;58.80
26342;DHT22;14054;50.108;8.640;2023-05-07T13:12:50;29.60;59.20
26342;DHT22;14054;50.108;8.640;2023-05-07T13:15:15;28.90;59.40
26342;DHT22;14054;50.108;8.640;2023-05-07T13:17:41;28.20;60.20
26342;DHT22;14054;50.108;8.640;2023-05-07T13:20:08;27.70;62.70
26342;DHT22;14054;50.108;8.640;2023-05-07T13:22:34;27.40;65.20
26342;DHT22;14054;50.108;8.640;2023-05-07T13:24:59;26.50;63.80
26342;DHT22;14054;50.108;8.640;2023-05-07T13:27:25;26.40;66.60
26342;DHT22;14054;50.108;8.640;2023-05-07T13:29:51;26.50;67.20
26342;DHT22;14054;50.108;8.640;2023-05-07T13:32:16;26.50;68.20
26342;DHT22;14054;50.108;8.640;2023-05-07T13:34:42;26.20;68.90
26342;DHT22;14054;50.108;8.640;2023-05-07T13:37:07;25.70;70.20
26342;DHT22;14054;50.108;8.640;2023-05-07T13:39:33;26.00;73.70
26342;DHT22;14054;50.108;8.640;2023-05-07T13:41:59;26.70;74.80
26342;DHT22;14054;50.108;8.640;2023-05-07T13:44:24;26.90;76.00
26342;DHT22;14054;50.108;8.640;2023-05-07T13:46:50;27.00;77.30
26342;DHT22;14054;50.108;8.640;2023-05-07T13:49:16;26.80;79.60
26342;DHT22;14054;50.108;8.640;2023-05-07T13:51:42;26.70;79.80
26342;DHT22;14054;50.108;8.640;2023-05-07T13:54:07;26.30;78.80
26342;DHT22;14054;50.108;8.640;2023-05-07T13:56:33;25.80;81.30
26342;DHT22;14054;50.108;8.640;2023-05-07T13:58:58;25.30;82.30
26342;DHT22;14054;50.108;8.640;2023-05-07T14:01:24;25.20;84.10
26342;DHT22;14054;50.108;8.640;2023-05-07T14:03:49;25.30;85.10
26342;DHT22;14054;50.108;8.640;2023-05-07T14:06:15;25.00;84.40
26342;DHT22;14054;50.108;8.640;2023-05-07T14:08:40;25.00;85.80
26342;DHT22;14054;50.108;8.640;2023-05-07T14:11:06;25.00;86.20
26342;DHT22;14054;50.108;8.640;2023-05-07T14:13:31;25.10;85.90
26342;DHT22;14054;50.108;8.640;2023-05-07T14:15:57;25.10;86.50
26342;DHT22;14054;50.108;8.640;2023-05-07T14:18:23;25.00;85.30
26342;DHT22;14054;50.108;8.640;2023-05-07T14:20:48;25.20;85.30
26342;DHT22;14054;50.108;8.640;2023-05-07T14:23:14;25.00;84.60
26342;DHT22;14054;50.108;8.640;2023-05-07T14:25:40;24.90;84.90
26342;DHT22;14054;50.108;8.640;2023-05-07T14:28:06;24.80;86.00
26342;DHT22;14054;50.108;8.640;2023-05-07T14:30:32;25.00;86.30
26342;DHT22;14054;50.108;8.640;2023-05-07T14:32:57;25.00;85.50
26342;DHT22;14054;50.108;8.640;2023-05-07T14:35:23;25.10;84.40
26342;DHT22;14054;50.108;8.640;2023-05-07T14:37:48;25.40;84.30
26342;DHT22;14054;50.108;8.640;2023-05-07T14:40:14;25.70;82.30
26342;DHT22;14054;50.108;8.640;2023-05-07T14:42:40;25.60;83.00
26342;DHT22;14054;50.108;8.640;2023-05-07T14:45:06;25.40;85.40
26342;DHT22;14054;50.108;8.640;2023-05-07T14:47:31;25.70;84.60
26342;DHT22;14054;50.108;8.640;2023-05-07T14:49:57;25.80;83.90
26342;DHT22;14054;50.108;8.640;2023-05-07T14:52:24;25.90;83.50
26342;DHT22;14054;50.108;8.640;2023-05-07T14:54:51;25.50;82.70
26342;DHT22;14054;50.108;8.640;2023-05-07T14:57:16;25.20;82.40
26342;DHT22;14054;50.108;8.640;2023-05-07T14:59:43;24.70;84.10
26342;DHT22;14054;50.108;8.640;2023-05-07T15:02:10;24.70;84.40
26342;DHT22;14054;50.108;8.640;2023-05-07T15:04:36;24.70;86.30
26342;DHT22;14054;50.108;8.640;2023-05-07T15:07:03;24.60;86.20
26342;DHT22;14054;50.108;8.640;2023-05-07T15:09:29;24.60;87.50
26342;DHT22;14054;50.108;8.640;2023-05-07T15:11:55;24.40;88.10
26342;DHT22;14054;50.108;8.640;2023-05-07T15:14:20;24.40;88.70
26342;DHT22;14054;50.108;8.640;2023-05-07T15:16:47;24.10;90.10
26342;DHT22;14054;50.108;8.640;2023-05-07T15:19:13;24.00;90.60
26342;DHT22;14054;50.108;8.640;2023-05-07T15:21:40;24.00;90.80
26342;DHT22;14054;50.108;8.640;2023-05-07T15:24:06;23.90;90.90
26342;DHT22;14054;50.108;8.640;2023-05-07T15:26:32;23.60;91.10
26342;DHT22;14054;50.108;8.640;2023-05-07T15:28:57;23.60;91.60
26342;DHT22;14054;50.108;8.640;2023-05-07T15:31:26;23.50;92.20
26342;DHT22;14054;50.108;8.640;2023-05-07T15:33:51;23.30;92.20
26342;DHT22;14054;50.108;8.640;2023-05-07T15:36:21;23.30;92.70
26342;DHT22;14054;50.108;8.640;2023-05-07T15:38:47;23.20;92.70